createdAt,value
2017-01-26T00:01:30.108Z,-4.49
2017-01-26T00:03:42.560Z,-4.49
2017-01-26T00:05:54.840Z,-4.49
2017-01-26T00:08:07.133Z,-4.49
2017-01-26T00:10:19.444Z,-4.47
2017-01-26T00:12:26.826Z,-4.47
2017-01-26T00:14:39.159Z,-4.47
2017-01-26T00:16:51.851Z,-4.47
2017-01-26T00:19:04.089Z,-4.47
2017-01-26T00:21:16.567Z,-4.46
2017-01-26T00:23:29.758Z,-4.47
2017-01-26T00:25:41.961Z,-4.47
2017-01-26T00:27:54.292Z,-4.47
2017-01-26T00:30:06.662Z,-4.46
2017-01-26T00:32:18.893Z,-4.46
2017-01-26T00:34:31.233Z,-4.46
2017-01-26T00:36:43.582Z,-4.46
2017-01-26T00:38:56.041Z,-4.43
2017-01-26T00:41:08.287Z,-4.43
2017-01-26T00:43:20.564Z,-4.42
2017-01-26T00:45:33.024Z,-4.42
2017-01-26T00:47:45.359Z,-4.42
2017-01-26T00:49:57.551Z,-4.42
2017-01-26T00:52:09.883Z,-4.42
2017-01-26T00:54:22.379Z,-4.42
2017-01-26T00:56:34.928Z,-4.42
2017-01-26T00:58:47.657Z,-4.4
2017-01-26T01:00:55.011Z,-4.4
2017-01-26T01:03:07.180Z,-4.4
2017-01-26T01:05:19.594Z,-4.39
2017-01-26T01:07:31.979Z,-4.39
2017-01-26T01:09:44.179Z,-4.4
2017-01-26T01:11:56.378Z,-4.4
2017-01-26T01:14:08.572Z,-4.39
2017-01-26T01:16:20.987Z,-4.39
2017-01-26T01:18:33.279Z,-4.39
2017-01-26T01:20:45.447Z,-4.39
2017-01-26T01:22:57.876Z,-4.38
2017-01-26T01:25:10.036Z,-4.39
2017-01-26T01:27:22.272Z,-4.39
2017-01-26T01:29:34.578Z,-4.39
2017-01-26T01:31:42.455Z,-4.38
2017-01-26T01:33:55.210Z,-4.39
2017-01-26T01:36:07.438Z,-4.39
2017-01-26T01:38:19.796Z,-4.39
2017-01-26T01:40:32.414Z,-4.39
2017-01-26T01:42:34.677Z,-4.38
2017-01-26T01:44:47.072Z,-4.39
2017-01-26T01:46:59.271Z,-4.39
2017-01-26T01:49:06.572Z,-4.39
2017-01-26T01:51:18.874Z,-4.39
2017-01-26T01:53:32.082Z,-4.38
2017-01-26T01:55:44.369Z,-4.38
2017-01-26T01:57:56.589Z,-4.38
2017-01-26T02:00:08.997Z,-4.38
2017-01-26T02:02:21.506Z,-4.39
2017-01-26T02:04:34.041Z,-4.38
2017-01-26T02:06:46.845Z,-4.38
2017-01-26T02:08:54.319Z,-4.38
2017-01-26T02:11:06.483Z,-4.39
2017-01-26T02:13:18.815Z,-4.38
2017-01-26T02:15:31.211Z,-4.36
2017-01-26T02:17:43.527Z,-4.38
2017-01-26T02:19:55.688Z,-4.38
2017-01-26T02:22:02.907Z,-4.38
2017-01-26T02:24:10.490Z,-4.38
2017-01-26T02:26:22.672Z,-4.38
2017-01-26T02:28:34.960Z,-4.36
2017-01-26T02:30:47.281Z,-4.39
2017-01-26T02:32:59.627Z,-4.4
2017-01-26T02:35:12.025Z,-4.36
2017-01-26T02:37:24.606Z,-4.39
2017-01-26T02:39:37.183Z,-4.38
2017-01-26T02:41:45.011Z,-4.38
2017-01-26T02:43:57.527Z,-4.39
2017-01-26T02:46:09.800Z,-4.38
2017-01-26T02:48:17.191Z,-4.39
2017-01-26T02:50:29.473Z,-4.4
2017-01-26T02:52:41.707Z,-4.39
2017-01-26T02:54:54.090Z,-4.39
2017-01-26T02:57:06.426Z,-4.4
2017-01-26T02:59:14.189Z,-4.39
2017-01-26T03:01:26.473Z,-4.4
2017-01-26T03:03:38.792Z,-4.42
2017-01-26T03:05:51.089Z,-4.42
2017-01-26T03:08:04.434Z,-4.43
2017-01-26T03:10:16.615Z,-4.43
2017-01-26T03:12:28.861Z,-4.43
2017-01-26T03:14:36.230Z,-4.46
2017-01-26T03:16:48.954Z,-4.46
2017-01-26T03:18:56.421Z,-4.46
2017-01-26T03:21:08.721Z,-4.46
2017-01-26T03:23:21.105Z,-4.47
2017-01-26T03:25:37.160Z,-4.47
2017-01-26T03:27:49.512Z,-4.49
2017-01-26T03:30:01.918Z,-4.49
2017-01-26T03:32:14.404Z,-4.49
2017-01-26T03:34:29.172Z,-4.5
2017-01-26T03:36:44.163Z,-4.51
2017-01-26T03:38:56.373Z,-4.51
2017-01-26T03:41:08.674Z,-4.51
2017-01-26T03:43:20.839Z,-4.53
2017-01-26T03:45:33.001Z,-4.51
2017-01-26T03:47:40.583Z,-4.53
2017-01-26T03:49:47.880Z,-4.53
2017-01-26T03:52:01.038Z,-4.53
2017-01-26T03:54:08.620Z,-4.53
2017-01-26T03:56:21.024Z,-4.54
2017-01-26T03:58:33.191Z,-4.53
2017-01-26T04:00:45.376Z,-4.53
2017-01-26T04:02:52.816Z,-4.54
2017-01-26T04:05:00.923Z,-4.54
2017-01-26T04:07:13.527Z,-4.54
2017-01-26T04:09:25.928Z,-4.54
2017-01-26T04:11:33.135Z,-4.54
2017-01-26T04:13:45.591Z,-4.56
2017-01-26T04:15:57.815Z,-4.56
2017-01-26T04:18:11.139Z,-4.56
2017-01-26T04:20:18.347Z,-4.57
2017-01-26T04:22:31.184Z,-4.56
2017-01-26T04:24:43.563Z,-4.57
2017-01-26T04:26:56.606Z,-4.57
2017-01-26T04:29:09.214Z,-4.57
2017-01-26T04:31:21.563Z,-4.58
2017-01-26T04:33:33.878Z,-4.58
2017-01-26T04:35:46.278Z,-4.57
2017-01-26T04:37:53.700Z,-4.58
2017-01-26T04:40:06.248Z,-4.58
2017-01-26T04:42:18.483Z,-4.58
2017-01-26T04:44:30.756Z,-4.58
2017-01-26T04:46:43.117Z,-4.58
2017-01-26T04:48:56.396Z,-4.58
2017-01-26T04:51:08.681Z,-4.58
2017-01-26T04:53:16.131Z,-4.58
2017-01-26T04:55:28.319Z,-4.58
2017-01-26T04:57:40.593Z,-4.58
2017-01-26T04:59:48.013Z,-4.6
2017-01-26T05:02:00.678Z,-4.6
2017-01-26T05:04:13.506Z,-4.6
2017-01-26T05:06:25.903Z,-4.58
2017-01-26T05:08:33.196Z,-4.6
2017-01-26T05:10:45.481Z,-4.61
2017-01-26T05:12:57.897Z,-4.6
2017-01-26T05:15:10.300Z,-4.6
2017-01-26T05:17:22.584Z,-4.6
2017-01-26T05:19:34.878Z,-4.61
2017-01-26T05:21:47.045Z,-4.6
2017-01-26T05:23:59.404Z,-4.61
2017-01-26T05:26:06.689Z,-4.61
2017-01-26T05:28:19.097Z,-4.61
2017-01-26T05:30:31.312Z,-4.61
2017-01-26T05:32:43.741Z,-4.61
2017-01-26T05:34:41.190Z,-4.61
2017-01-26T05:36:54.113Z,-4.61
2017-01-26T05:39:06.948Z,-4.61
2017-01-26T05:41:19.488Z,-4.61
2017-01-26T05:43:31.978Z,-4.63
2017-01-26T05:45:44.412Z,-4.61
2017-01-26T05:47:56.804Z,-4.63
2017-01-26T05:50:09.030Z,-4.61
2017-01-26T05:52:21.347Z,-4.63
2017-01-26T05:54:33.706Z,-4.63
2017-01-26T05:56:45.875Z,-4.63
2017-01-26T05:58:58.291Z,-4.61
2017-01-26T06:01:10.491Z,-4.63
2017-01-26T06:03:12.976Z,-4.61
2017-01-26T06:05:25.570Z,-4.63
2017-01-26T06:07:32.956Z,-4.61
2017-01-26T06:09:46.300Z,-4.63
2017-01-26T06:11:59.271Z,-4.63
2017-01-26T06:14:12.520Z,-4.63
2017-01-26T06:16:19.718Z,-4.65
2017-01-26T06:18:32.019Z,-4.63
2017-01-26T06:20:39.219Z,-4.65
2017-01-26T06:22:51.616Z,-4.65
2017-01-26T06:25:03.999Z,-4.65
2017-01-26T06:27:16.230Z,-4.63
2017-01-26T06:29:29.453Z,-4.63
2017-01-26T06:31:41.938Z,-4.63
2017-01-26T06:33:54.159Z,-4.65
2017-01-26T06:36:01.703Z,-4.63
2017-01-26T06:38:14.040Z,-4.65
2017-01-26T06:40:24.152Z,-4.65
2017-01-26T06:42:41.197Z,-4.63
2017-01-26T06:44:53.477Z,-4.63
2017-01-26T06:47:06.330Z,-4.65
2017-01-26T06:49:19.144Z,-4.65
2017-01-26T06:51:26.616Z,-4.63
2017-01-26T06:53:38.935Z,-4.65
2017-01-26T06:55:51.151Z,-4.63
2017-01-26T06:57:58.609Z,-4.63
2017-01-26T07:00:11.162Z,-4.65
2017-01-26T07:02:23.504Z,-4.63
2017-01-26T07:04:35.806Z,-4.63
2017-01-26T07:06:48.240Z,-4.63
2017-01-26T07:09:00.629Z,-4.63
2017-01-26T07:11:13.986Z,-4.63
2017-01-26T07:13:26.343Z,-4.61
2017-01-26T07:15:38.662Z,-4.6
2017-01-26T07:17:51.005Z,-4.6
2017-01-26T07:19:58.841Z,-4.6
2017-01-26T07:22:01.724Z,-4.58
2017-01-26T07:24:14.397Z,-4.57
2017-01-26T07:26:26.733Z,-4.57
2017-01-26T07:28:39.147Z,-4.56
2017-01-26T07:30:51.421Z,-4.54
2017-01-26T07:33:03.644Z,-4.54
2017-01-26T07:35:16.483Z,-4.53
2017-01-26T07:37:28.724Z,-4.5
2017-01-26T07:39:41.031Z,-4.5
2017-01-26T07:41:53.460Z,-4.47
2017-01-26T07:44:05.969Z,-4.47
2017-01-26T07:46:18.412Z,-4.43
2017-01-26T07:48:30.676Z,-4.4
2017-01-26T07:50:43.207Z,-4.39
2017-01-26T07:52:50.545Z,-4.36
2017-01-26T07:55:02.758Z,-4.35
2017-01-26T07:57:16.090Z,-4.32
2017-01-26T07:59:28.599Z,-4.3
2017-01-26T08:01:35.985Z,-4.3
2017-01-26T08:03:43.428Z,-4.28
2017-01-26T08:05:55.831Z,-4.24
2017-01-26T08:08:08.397Z,-4.2
2017-01-26T08:10:20.580Z,-4.2
2017-01-26T08:12:32.936Z,-4.17
2017-01-26T08:14:40.366Z,-4.15
2017-01-26T08:16:47.637Z,-4.12
2017-01-26T08:19:01.337Z,-4.11
2017-01-26T08:21:16.324Z,-4.1
2017-01-26T08:23:37.684Z,-4.04
2017-01-26T08:25:49.951Z,-4.03
2017-01-26T08:28:02.215Z,-4
2017-01-26T08:30:09.881Z,-3.99
2017-01-26T08:32:17.810Z,-3.96
2017-01-26T08:34:30.154Z,-3.93
2017-01-26T08:36:42.597Z,-3.91
2017-01-26T08:38:49.953Z,-3.86
2017-01-26T08:40:57.264Z,-3.85
2017-01-26T08:43:04.620Z,-3.81
2017-01-26T08:45:16.764Z,-3.78
2017-01-26T08:47:29.156Z,-3.76
2017-01-26T08:49:41.423Z,-3.75
2017-01-26T08:51:53.640Z,-3.72
2017-01-26T08:54:06.014Z,-3.71
2017-01-26T08:56:13.447Z,-3.67
2017-01-26T08:58:20.926Z,-3.64
2017-01-26T09:00:33.283Z,-3.63
2017-01-26T09:02:45.772Z,-3.6
2017-01-26T09:04:57.982Z,-3.59
2017-01-26T09:07:10.646Z,-3.57
2017-01-26T09:09:24.687Z,-3.54
2017-01-26T09:11:37.181Z,-3.52
2017-01-26T09:13:49.475Z,-3.49
2017-01-26T09:16:01.888Z,-3.48
2017-01-26T09:18:14.186Z,-3.45
2017-01-26T09:20:26.584Z,-3.42
2017-01-26T09:22:38.902Z,-3.39
2017-01-26T09:24:51.410Z,-3.35
2017-01-26T09:27:03.692Z,-3.33
2017-01-26T09:29:11.268Z,-3.3
2017-01-26T09:31:23.588Z,-3.27
2017-01-26T09:33:36.113Z,-3.24
2017-01-26T09:35:48.412Z,-3.2
2017-01-26T09:38:00.819Z,-3.15
2017-01-26T09:40:13.228Z,-3.1
2017-01-26T09:42:25.583Z,-3.05
2017-01-26T09:44:38.123Z,-3.03
2017-01-26T09:46:45.605Z,-3
2017-01-26T09:48:52.854Z,-2.99
2017-01-26T09:51:05.191Z,-2.96
2017-01-26T09:53:17.578Z,-2.91
2017-01-26T09:55:29.941Z,-2.88
2017-01-26T09:57:42.606Z,-2.82
2017-01-26T09:59:55.001Z,-2.81
2017-01-26T10:02:07.270Z,-2.77
2017-01-26T10:04:15.570Z,-2.71
2017-01-26T10:06:22.786Z,-2.67
2017-01-26T10:08:35.090Z,-2.63
2017-01-26T10:10:47.505Z,-2.6
2017-01-26T10:12:54.803Z,-2.6
2017-01-26T10:15:07.393Z,-2.55
2017-01-26T10:17:20.017Z,-2.53
2017-01-26T10:19:28.531Z,-2.52
2017-01-26T10:21:40.829Z,-2.5
2017-01-26T10:23:43.433Z,-2.48
2017-01-26T10:25:55.817Z,-2.45
2017-01-26T10:28:03.088Z,-2.43
2017-01-26T10:30:16.393Z,-2.39
2017-01-26T10:32:23.637Z,-2.35
2017-01-26T10:34:35.983Z,-2.3
2017-01-26T10:36:43.392Z,-2.27
2017-01-26T10:38:50.752Z,-2.24
2017-01-26T10:41:03.111Z,-2.21
2017-01-26T10:43:15.457Z,-2.18
2017-01-26T10:45:27.858Z,-2.13
2017-01-26T10:47:40.061Z,-2.12
2017-01-26T10:49:52.290Z,-2.1
2017-01-26T10:52:05.031Z,-2.06
2017-01-26T10:54:17.727Z,-2.06
2017-01-26T10:56:29.994Z,-2.03
2017-01-26T10:58:37.293Z,-2.02
2017-01-26T11:00:49.471Z,-1.97
2017-01-26T11:03:01.692Z,-1.94
2017-01-26T11:05:14.091Z,-1.92
2017-01-26T11:07:16.449Z,-1.88
2017-01-26T11:09:28.777Z,-1.88
2017-01-26T11:11:41.027Z,-1.82
2017-01-26T11:13:53.265Z,-1.82
2017-01-26T11:16:05.551Z,-1.8
2017-01-26T11:18:17.838Z,-1.77
2017-01-26T11:20:30.149Z,-1.73
2017-01-26T11:22:42.449Z,-1.73
2017-01-26T11:24:54.698Z,-1.69
2017-01-26T11:27:07.362Z,-1.64
2017-01-26T11:29:20.290Z,-1.59
2017-01-26T11:31:32.689Z,-1.58
2017-01-26T11:33:44.961Z,-1.55
2017-01-26T11:35:47.257Z,-1.51
2017-01-26T11:37:59.438Z,-1.48
2017-01-26T11:39:56.764Z,-1.45
2017-01-26T11:42:09.371Z,-1.37
2017-01-26T11:44:16.593Z,-1.33
2017-01-26T11:46:29.103Z,-1.25
2017-01-26T11:48:41.290Z,-1.19
2017-01-26T11:50:53.513Z,-1.16
2017-01-26T11:53:06.006Z,-1.13
2017-01-26T11:55:18.395Z,-1.09
2017-01-26T11:57:30.802Z,-1.01
2017-01-26T11:59:43.129Z,-0.98
2017-01-26T12:01:56.179Z,-0.99
2017-01-26T12:04:08.930Z,-0.95
2017-01-26T12:06:21.260Z,-0.91
2017-01-26T12:08:33.644Z,-0.82
2017-01-26T12:10:41.041Z,-0.72
2017-01-26T12:12:43.495Z,-0.64
2017-01-26T12:14:50.988Z,-0.52
2017-01-26T12:17:03.397Z,-0.43
2017-01-26T12:19:10.939Z,-0.4
2017-01-26T12:21:24.333Z,-0.39
2017-01-26T12:23:31.921Z,-0.4
2017-01-26T12:25:44.460Z,-0.22
2017-01-26T12:27:57.058Z,-0.05
2017-01-26T12:30:09.815Z,0.21
2017-01-26T12:32:17.376Z,0.38
2017-01-26T12:34:29.856Z,0.55
2017-01-26T12:36:42.769Z,0.57
2017-01-26T12:38:55.298Z,0.68
2017-01-26T12:41:02.858Z,0.73
2017-01-26T12:43:15.160Z,0.66
2017-01-26T12:45:22.559Z,0.58
2017-01-26T12:47:34.831Z,0.53
2017-01-26T12:49:47.250Z,0.46
2017-01-26T12:51:54.606Z,0.46
2017-01-26T12:54:07.345Z,0.46
2017-01-26T12:56:19.832Z,0.36
2017-01-26T12:58:32.311Z,0.44
2017-01-26T13:00:39.650Z,0.46
2017-01-26T13:02:52.007Z,0.47
2017-01-26T13:04:59.299Z,0.44
2017-01-26T13:07:06.965Z,0.39
2017-01-26T13:09:19.432Z,0.42
2017-01-26T13:11:32.073Z,0.53
2017-01-26T13:13:44.825Z,0.6
2017-01-26T13:15:57.241Z,0.62
2017-01-26T13:18:09.646Z,0.62
2017-01-26T13:20:22.449Z,0.66
2017-01-26T13:22:35.532Z,0.7
2017-01-26T13:24:47.753Z,0.7
2017-01-26T13:26:55.156Z,0.7
2017-01-26T13:29:07.566Z,0.72
2017-01-26T13:31:20.266Z,0.7
2017-01-26T13:33:32.668Z,0.69
2017-01-26T13:35:42.173Z,0.72
2017-01-26T13:37:55.402Z,0.72
2017-01-26T13:40:09.277Z,0.75
2017-01-26T13:42:21.775Z,0.79
2017-01-26T13:44:34.046Z,0.79
2017-01-26T13:46:46.629Z,0.73
2017-01-26T13:48:59.296Z,0.76
2017-01-26T13:51:11.542Z,0.8
2017-01-26T13:53:23.919Z,0.83
2017-01-26T13:55:36.208Z,0.86
2017-01-26T13:57:48.435Z,0.87
2017-01-26T14:00:01.163Z,0.87
2017-01-26T14:02:13.600Z,0.87
2017-01-26T14:04:25.959Z,0.84
2017-01-26T14:06:38.228Z,0.83
2017-01-26T14:08:50.502Z,0.75
2017-01-26T14:10:42.917Z,0.7
2017-01-26T14:12:55.094Z,0.7
2017-01-26T14:15:07.461Z,0.69
2017-01-26T14:17:19.634Z,0.62
2017-01-26T14:19:27.043Z,0.65
2017-01-26T14:21:39.762Z,0.68
2017-01-26T14:23:52.371Z,0.68
2017-01-26T14:26:04.647Z,0.66
2017-01-26T14:28:17.003Z,0.69
2017-01-26T14:30:29.404Z,0.69
2017-01-26T14:32:41.882Z,0.68
2017-01-26T14:34:49.194Z,0.61
2017-01-26T14:36:56.667Z,0.53
2017-01-26T14:39:08.960Z,0.49
2017-01-26T14:41:16.378Z,0.49
2017-01-26T14:43:28.864Z,0.46
2017-01-26T14:45:41.245Z,0.44
2017-01-26T14:47:48.640Z,0.42
2017-01-26T14:50:00.953Z,0.42
2017-01-26T14:52:13.345Z,0.39
2017-01-26T14:54:15.714Z,0.39
2017-01-26T14:56:28.250Z,0.35
2017-01-26T14:58:40.962Z,0.35
2017-01-26T15:00:48.345Z,0.35
2017-01-26T15:03:00.729Z,0.32
2017-01-26T15:05:13.298Z,0.31
2017-01-26T15:07:25.551Z,0.29
2017-01-26T15:09:38.025Z,0.28
2017-01-26T15:11:45.328Z,0.26
2017-01-26T15:13:52.677Z,0.24
2017-01-26T15:16:00.000Z,0.23
2017-01-26T15:18:12.505Z,0.21
2017-01-26T15:20:24.863Z,0.2
2017-01-26T15:22:38.144Z,0.2
2017-01-26T15:24:53.883Z,0.2
2017-01-26T15:27:06.503Z,0.17
2017-01-26T15:29:23.051Z,0.15
2017-01-26T15:31:36.127Z,0.14
2017-01-26T15:33:49.437Z,0.1
2017-01-26T15:36:03.057Z,0.07
2017-01-26T15:38:18.695Z,0.02
2017-01-26T15:40:36.951Z,-0.03
2017-01-26T15:42:52.049Z,-0.07
2017-01-26T15:45:04.391Z,-0.14
2017-01-26T15:47:12.155Z,-0.21
2017-01-26T15:49:20.331Z,-0.26
2017-01-26T15:51:33.103Z,-0.34
2017-01-26T15:53:46.528Z,-0.4
2017-01-26T15:55:59.459Z,-0.49
2017-01-26T15:58:11.976Z,-0.55
2017-01-26T16:00:24.246Z,-0.65
2017-01-26T16:02:37.186Z,-0.73
2017-01-26T16:04:50.654Z,-0.79
2017-01-26T16:07:09.054Z,-0.89
2017-01-26T16:09:48.962Z,-0.98
2017-01-26T16:12:25.870Z,-1.05
2017-01-26T16:15:05.288Z,-1.13
2017-01-26T16:17:45.774Z,-1.2
2017-01-26T16:20:25.219Z,-1.25
2017-01-26T16:23:00.005Z,-1.33
2017-01-26T16:25:41.270Z,-1.4
2017-01-26T16:28:23.179Z,-1.48
2017-01-26T16:31:04.007Z,-1.52
2017-01-26T16:33:44.821Z,-1.59
2017-01-26T16:36:30.609Z,-1.66
2017-01-26T16:39:16.869Z,-1.74
2017-01-26T16:42:07.666Z,-1.8
2017-01-26T16:44:55.183Z,-1.9
2017-01-26T16:47:37.566Z,-1.97
2017-01-26T16:50:04.968Z,-2.05
2017-01-26T16:52:46.696Z,-2.13
2017-01-26T16:55:37.601Z,-2.24
2017-01-26T16:58:24.418Z,-2.35
2017-01-26T17:01:13.851Z,-2.46
2017-01-26T17:03:56.816Z,-2.58
2017-01-26T17:06:09.235Z,-2.67
2017-01-26T17:08:21.666Z,-2.78
2017-01-26T17:10:33.947Z,-2.89
2017-01-26T17:12:46.172Z,-3
2017-01-26T17:14:58.567Z,-3.12
2017-01-26T17:17:05.858Z,-3.23
2017-01-26T17:19:18.216Z,-3.35
2017-01-26T17:21:30.531Z,-3.46
2017-01-26T17:23:43.035Z,-3.57
2017-01-26T17:25:55.438Z,-3.69
2017-01-26T17:28:02.839Z,-3.82
2017-01-26T17:30:10.251Z,-3.93
2017-01-26T17:32:22.609Z,-4.03
2017-01-26T17:34:35.093Z,-4.15
2017-01-26T17:36:47.314Z,-4.21
2017-01-26T17:39:00.271Z,-4.35
2017-01-26T17:41:07.613Z,-4.46
2017-01-26T17:43:15.099Z,-4.56
2017-01-26T17:45:27.504Z,-4.65
2017-01-26T17:47:34.784Z,-4.74
2017-01-26T17:49:47.116Z,-4.85
2017-01-26T17:51:59.401Z,-4.95
2017-01-26T17:54:11.900Z,-5.04
2017-01-26T17:56:19.283Z,-5.14
2017-01-26T17:58:28.346Z,-5.23
2017-01-26T18:00:40.843Z,-5.32
2017-01-26T18:02:48.278Z,-5.43
2017-01-26T18:05:00.509Z,-5.51
2017-01-26T18:07:13.031Z,-5.61
2017-01-26T18:09:25.553Z,-5.68
2017-01-26T18:11:37.938Z,-5.74
2017-01-26T18:13:50.341Z,-5.84
2017-01-26T18:16:02.621Z,-5.92
2017-01-26T18:18:14.934Z,-6
2017-01-26T18:20:27.278Z,-6.07
2017-01-26T18:22:41.433Z,-6.15
2017-01-26T18:24:54.408Z,-6.23
2017-01-26T18:27:06.879Z,-6.31
2017-01-26T18:29:19.445Z,-6.39
2017-01-26T18:31:33.233Z,-6.46
2017-01-26T18:33:46.109Z,-6.52
2017-01-26T18:35:54.376Z,-6.58
2017-01-26T18:38:06.947Z,-6.62
2017-01-26T18:40:21.026Z,-6.65
2017-01-26T18:42:28.626Z,-6.68
2017-01-26T18:44:36.235Z,-6.74
2017-01-26T18:46:40.992Z,-6.79
2017-01-26T18:48:55.463Z,-6.83
2017-01-26T18:51:02.867Z,-6.89
2017-01-26T18:53:15.251Z,-6.97
2017-01-26T18:55:27.674Z,-7.04
2017-01-26T18:57:41.918Z,-7.12
2017-01-26T18:59:55.418Z,-7.18
2017-01-26T19:02:07.764Z,-7.25
2017-01-26T19:04:20.303Z,-7.31
2017-01-26T19:06:33.698Z,-7.37
2017-01-26T19:08:46.525Z,-7.44
2017-01-26T19:10:53.782Z,-7.51
2017-01-26T19:13:06.041Z,-7.57
2017-01-26T19:15:18.586Z,-7.62
2017-01-26T19:17:31.105Z,-7.69
2017-01-26T19:19:43.604Z,-7.73
2017-01-26T19:21:55.911Z,-7.79
2017-01-26T19:24:08.465Z,-7.86
2017-01-26T19:26:21.653Z,-7.93
2017-01-26T19:28:34.779Z,-7.99
2017-01-26T19:30:47.089Z,-8.06
2017-01-26T19:33:01.644Z,-8.12
2017-01-26T19:35:14.386Z,-8.18
2017-01-26T19:37:28.596Z,-8.24
2017-01-26T19:39:37.051Z,-8.3
2017-01-26T19:41:49.723Z,-8.34
2017-01-26T19:44:02.827Z,-8.37
2017-01-26T19:46:15.211Z,-8.42
2017-01-26T19:48:27.500Z,-8.47
2017-01-26T19:50:39.732Z,-8.48
2017-01-26T19:52:51.932Z,-8.52
2017-01-26T19:54:59.279Z,-8.57
2017-01-26T19:57:12.779Z,-8.6
2017-01-26T19:59:27.510Z,-8.65
2017-01-26T20:01:39.916Z,-8.69
2017-01-26T20:03:52.507Z,-8.75
2017-01-26T20:06:05.002Z,-8.78
2017-01-26T20:08:13.898Z,-8.83
2017-01-26T20:10:27.344Z,-8.87
2017-01-26T20:12:40.083Z,-8.89
2017-01-26T20:14:53.378Z,-8.93
2017-01-26T20:17:07.238Z,-8.98
2017-01-26T20:19:15.235Z,-9
2017-01-26T20:21:28.653Z,-9.04
2017-01-26T20:23:42.832Z,-9.08
2017-01-26T20:25:50.311Z,-9.11
2017-01-26T20:27:57.873Z,-9.15
2017-01-26T20:30:13.345Z,-9.19
2017-01-26T20:32:26.102Z,-9.22
2017-01-26T20:34:39.641Z,-9.19
2017-01-26T20:36:54.328Z,-9.28
2017-01-26T20:39:08.696Z,-9.3
2017-01-26T20:41:22.927Z,-9.33
2017-01-26T20:43:36.188Z,-9.37
2017-01-26T20:45:43.638Z,-9.41
2017-01-26T20:47:55.989Z,-9.45
2017-01-26T20:50:03.247Z,-9.5
2017-01-26T20:52:11.045Z,-9.52
2017-01-26T20:54:24.098Z,-9.58
2017-01-26T20:56:31.459Z,-9.59
2017-01-26T20:58:43.860Z,-9.65
2017-01-26T21:00:56.161Z,-9.68
2017-01-26T21:03:08.547Z,-9.71
2017-01-26T21:05:20.974Z,-9.74
2017-01-26T21:07:33.335Z,-9.76
2017-01-26T21:09:45.578Z,-9.79
2017-01-26T21:11:57.715Z,-9.81
2017-01-26T21:14:10.182Z,-9.84
2017-01-26T21:16:22.579Z,-9.89
2017-01-26T21:18:30.078Z,-9.92
2017-01-26T21:20:42.588Z,-9.97
2017-01-26T21:22:54.969Z,-10
2017-01-26T21:25:07.682Z,-10.02
2017-01-26T21:27:20.588Z,-10.07
2017-01-26T21:29:32.998Z,-10.1
2017-01-26T21:31:45.311Z,-10.13
2017-01-26T21:33:57.598Z,-10.16
2017-01-26T21:36:09.850Z,-10.21
2017-01-26T21:38:17.098Z,-10.23
2017-01-26T21:40:29.553Z,-10.28
2017-01-26T21:42:41.871Z,-10.31
2017-01-26T21:44:54.823Z,-10.36
2017-01-26T21:47:07.232Z,-10.39
2017-01-26T21:49:19.518Z,-10.41
2017-01-26T21:51:31.917Z,-10.47
2017-01-26T21:53:44.450Z,-10.47
2017-01-26T21:55:56.689Z,-10.51
2017-01-26T21:58:09.040Z,-10.52
2017-01-26T22:00:16.406Z,-10.55
2017-01-26T22:02:28.910Z,-10.58
2017-01-26T22:04:41.110Z,-10.6
2017-01-26T22:06:53.416Z,-10.61
2017-01-26T22:09:05.631Z,-10.64
2017-01-26T22:11:12.923Z,-10.65
2017-01-26T22:13:25.209Z,-10.69
2017-01-26T22:15:37.530Z,-10.73
2017-01-26T22:17:49.753Z,-10.76
2017-01-26T22:20:01.994Z,-10.79
2017-01-26T22:22:14.420Z,-10.82
2017-01-26T22:24:26.837Z,-10.86
2017-01-26T22:26:39.063Z,-10.91
2017-01-26T22:28:51.335Z,-10.94
2017-01-26T22:31:06.159Z,-10.95
2017-01-26T22:33:18.387Z,-11
2017-01-26T22:35:26.409Z,-11.03
2017-01-26T22:37:39.173Z,-11.03
2017-01-26T22:39:51.600Z,-11.06
2017-01-26T22:42:03.929Z,-11.08
2017-01-26T22:44:21.944Z,-11.11
2017-01-26T22:46:38.860Z,-11.12
2017-01-26T22:49:10.886Z,-11.16
2017-01-26T22:51:39.701Z,-11.18
2017-01-26T22:53:52.192Z,-11.19
2017-01-26T22:55:56.114Z,-11.21
2017-01-26T22:58:11.517Z,-11.23
2017-01-26T23:00:26.729Z,-11.23
2017-01-26T23:03:00.354Z,-11.29
2017-01-26T23:05:33.853Z,-11.29
2017-01-26T23:08:07.630Z,-11.3
2017-01-26T23:10:40.148Z,-11.3
2017-01-26T23:13:12.646Z,-11.34
2017-01-26T23:15:45.678Z,-11.37
2017-01-26T23:18:18.957Z,-11.39
2017-01-26T23:20:52.426Z,-11.44
2017-01-26T23:23:23.628Z,-11.48
2017-01-26T23:25:57.749Z,-11.53
2017-01-26T23:28:32.220Z,-11.54
2017-01-26T23:31:06.401Z,-11.57
2017-01-26T23:33:40.511Z,-11.6
2017-01-26T23:36:10.128Z,-11.61
2017-01-26T23:38:24.268Z,-11.64
2017-01-26T23:40:40.973Z,-11.64
2017-01-26T23:42:54.529Z,-11.68
2017-01-26T23:45:10.352Z,-11.68
2017-01-26T23:47:18.768Z,-11.69
2017-01-26T23:49:34.990Z,-11.72
2017-01-26T23:51:51.828Z,-11.74
2017-01-26T23:54:08.346Z,-11.76
2017-01-26T23:56:24.880Z,-11.79
2017-01-26T23:58:40.081Z,-11.83
